Time;durP1;ratioP1;P1;durP2;ratioP2;P2;SDS_P1;SDS_P2;PMS_P1;PMS_P2;Temp;Humidity;BMP_temperature;BMP_pressure;BME280_temperature;BME280_humidity;BME280_pressure;Samples;Min_cycle;Max_cycle;Signal;HPM_P1;HPM_P2
2022/12/15 00:39:39;;;;;;;15.00;5.22;;;10.90;99.90;;;;;;5096650;28;20049;-80
2022/12/15 00:42:06;;;;;;;6.82;4.78;;;10.90;99.90;;;;;;5093861;28;20039;-83
2022/12/15 00:44:32;;;;;;;7.18;4.95;;;10.90;99.90;;;;;;5090617;28;20024;-82
2022/12/15 00:46:58;;;;;;;8.63;4.63;;;11.00;99.90;;;;;;5099081;28;20073;-81
2022/12/15 01:22:25;;;;;;;8.02;4.78;;;10.80;99.90;;;;;;5090130;28;20498;-81
2022/12/15 01:24:51;;;;;;;10.32;4.30;;;10.70;99.90;;;;;;5072476;28;20040;-81
2022/12/15 01:27:17;;;;;;;11.88;5.78;;;10.70;99.90;;;;;;5080427;28;20031;-82
2022/12/15 01:29:43;;;;;;;8.80;5.70;;;10.70;99.90;;;;;;5092174;28;20480;-83
2022/12/15 01:32:09;;;;;;;11.52;5.22;;;10.60;99.90;;;;;;5096789;28;20016;-79
2022/12/15 01:34:34;;;;;;;9.45;5.43;;;10.60;99.90;;;;;;5086089;28;20469;-86
2022/12/15 01:37:00;;;;;;;7.93;4.88;;;10.60;99.90;;;;;;5073859;28;20016;-85
2022/12/15 01:40:43;;;;;;;8.35;5.35;;;10.70;99.90;;;;;;5091323;28;20040;-82
2022/12/15 01:42:12;;;;;;;6.97;5.13;;;10.70;99.90;;;;;;5097923;28;20447;-82
2022/12/15 01:44:38;;;;;;;10.55;4.65;;;10.80;99.90;;;;;;5087563;28;20111;-82
2022/12/15 01:47:08;;;;;;;9.00;5.63;;;10.80;99.90;;;;;;5097895;28;20095;-82
2022/12/15 01:49:33;;;;;;;6.82;5.03;;;10.90;99.90;;;;;;5085420;28;20108;-84
2022/12/15 01:52:02;;;;;;;12.07;5.50;;;10.90;99.90;;;;;;5092805;28;20059;-84
2022/12/15 01:54:34;;;;;;;9.00;5.28;;;10.90;99.90;;;;;;5090138;28;20031;-81
2022/12/15 01:57:06;;;;;;;7.72;5.28;;;10.90;99.90;;;;;;5097765;28;20085;-85
2022/12/15 01:59:45;;;;;;;6.78;5.13;;;10.90;99.90;;;;;;5089937;28;20036;-83
2022/12/15 02:02:14;;;;;;;8.80;6.03;;;11.00;99.90;;;;;;5097590;28;20021;-83
2022/12/15 02:04:40;;;;;;;14.10;6.32;;;11.00;99.90;;;;;;5085510;28;20033;-86
2022/12/15 02:07:14;;;;;;;6.30;5.63;;;11.00;99.90;;;;;;5076210;28;20024;-82
2022/12/15 02:09:42;;;;;;;10.85;5.95;;;11.00;99.90;;;;;;5085353;28;20025;-82
2022/12/15 02:12:25;;;;;;;9.82;6.70;;;11.10;99.90;;;;;;5071286;28;20028;-83
2022/12/15 02:15:10;;;;;;;6.70;6.00;;;11.10;99.90;;;;;;5070161;28;20484;-83
2022/12/15 02:17:59;;;;;;;12.98;7.63;;;11.10;99.90;;;;;;5097604;28;20027;-82
2022/12/15 02:20:34;;;;;;;17.83;8.30;;;11.20;99.90;;;;;;5073351;28;20110;-82
2022/12/15 02:23:06;;;;;;;11.35;7.75;;;11.20;99.90;;;;;;5095069;28;20024;-80
2022/12/15 02:26:11;;;;;;;11.35;7.13;;;11.20;99.90;;;;;;5087451;28;20043;-80
2022/12/15 02:28:57;;;;;;;12.60;7.43;;;11.20;99.90;;;;;;5075514;28;20399;-81
2022/12/15 02:31:50;;;;;;;13.80;7.20;;;11.20;99.90;;;;;;5065311;28;20028;-82
2022/12/15 02:34:52;;;;;;;10.18;6.88;;;11.30;99.90;;;;;;5090040;28;20024;-89
2022/12/15 02:37:38;;;;;;;11.50;7.88;;;11.20;99.90;;;;;;5096040;28;20026;-83
2022/12/15 02:40:07;;;;;;;11.88;6.88;;;11.30;99.90;;;;;;5090447;28;20096;-84
2022/12/15 02:42:37;;;;;;;14.07;7.47;;;11.20;99.90;;;;;;5078336;28;20031;-83
2022/12/15 02:45:07;;;;;;;8.60;7.70;;;11.20;99.90;;;;;;5088681;28;20426;-81
2022/12/15 02:47:50;;;;;;;12.55;7.05;;;11.30;99.90;;;;;;5077239;28;20030;-79
2022/12/15 02:50:28;;;;;;;8.65;7.50;;;11.30;99.90;;;;;;5090442;28;20033;-81
2022/12/15 02:53:09;;;;;;;9.90;7.25;;;11.20;99.90;;;;;;5084431;28;20020;-83
2022/12/15 02:55:50;;;;;;;13.80;7.13;;;11.20;99.90;;;;;;5094265;28;20396;-80
2022/12/15 02:58:18;;;;;;;;;;;11.20;99.90;;;;;;5074941;28;20028;-80
2022/12/15 03:00:51;;;;;;;13.80;8.27;;;11.20;99.90;;;;;;5095438;28;19904;-84
2022/12/15 03:03:20;;;;;;;13.65;7.22;;;11.20;99.90;;;;;;5084373;28;20060;-85
2022/12/15 03:05:52;;;;;;;12.20;7.63;;;11.20;99.90;;;;;;5069109;28;20107;-82
2022/12/15 03:08:19;;;;;;;15.10;7.65;;;11.20;99.90;;;;;;5089521;28;20047;-84
2022/12/15 03:10:46;;;;;;;11.70;8.38;;;11.20;99.90;;;;;;5088288;28;20077;-83
2022/12/15 03:13:13;;;;;;;16.80;9.52;;;11.20;99.90;;;;;;5093027;28;20028;-82
2022/12/15 03:15:39;;;;;;;14.80;8.98;;;11.10;99.90;;;;;;5089369;28;20076;-84
2022/12/15 03:18:05;;;;;;;12.63;9.93;;;11.20;99.90;;;;;;5093437;28;20477;-84
2022/12/15 03:20:30;;;;;;;14.68;9.10;;;11.20;99.90;;;;;;5066177;28;20021;-83
2022/12/15 03:22:56;;;;;;;17.60;10.15;;;11.20;99.90;;;;;;5076664;28;20476;-82
2022/12/15 03:25:22;;;;;;;18.40;11.30;;;11.20;99.90;;;;;;5092116;28;20032;-82
2022/12/15 03:27:48;;;;;;;16.40;11.52;;;11.20;99.90;;;;;;5076907;28;20063;-82
2022/12/15 03:30:14;;;;;;;13.63;10.25;;;11.20;99.90;;;;;;5078076;28;20012;-84
2022/12/15 03:32:40;;;;;;;14.50;10.38;;;11.20;99.90;;;;;;5077931;28;20021;-83
2022/12/15 03:35:07;;;;;;;18.13;9.35;;;11.20;99.90;;;;;;5089623;28;20028;-84
2022/12/15 03:37:32;;;;;;;15.27;8.80;;;11.20;99.90;;;;;;5084593;28;20035;-85
2022/12/15 03:39:58;;;;;;;15.80;11.23;;;11.20;99.90;;;;;;5089748;28;20024;-81
2022/12/15 03:45:08;;;;;;;13.80;9.73;;;11.20;99.90;;;;;;5086084;28;20059;-85
2022/12/15 03:47:34;;;;;;;14.02;9.02;;;11.20;99.90;;;;;;5096283;28;20052;-85
2022/12/15 03:50:00;;;;;;;11.95;8.25;;;11.20;99.90;;;;;;5087021;28;20091;-80
2022/12/15 03:52:26;;;;;;;12.25;8.20;;;11.20;99.90;;;;;;5096421;28;20519;-82
2022/12/15 03:54:52;;;;;;;12.30;8.52;;;11.20;99.90;;;;;;5086664;28;20024;-80
2022/12/15 03:57:17;;;;;;;12.32;8.40;;;11.20;99.90;;;;;;5080206;28;20054;-84
2022/12/15 03:59:43;;;;;;;9.30;7.80;;;11.20;99.90;;;;;;5076437;28;20105;-84
2022/12/15 04:02:10;;;;;;;15.18;8.02;;;11.20;99.90;;;;;;5097781;28;20028;-81
2022/12/15 04:04:36;;;;;;;9.95;8.10;;;11.30;99.90;;;;;;5076838;28;20632;-81
2022/12/15 04:07:02;;;;;;;8.93;8.02;;;11.30;99.90;;;;;;5079772;28;20032;-80
2022/12/15 04:09:28;;;;;;;10.48;6.63;;;11.40;99.90;;;;;;5073811;28;20028;-83
2022/12/15 04:11:54;;;;;;;9.82;6.88;;;11.40;99.90;;;;;;5089031;28;20480;-82
2022/12/15 04:14:20;;;;;;;11.98;7.32;;;11.40;99.90;;;;;;5076006;28;20028;-81
2022/12/15 04:16:45;;;;;;;10.52;6.85;;;11.40;99.90;;;;;;5096164;28;20572;-85
2022/12/15 04:21:56;;;;;;;11.32;5.93;;;11.40;99.90;;;;;;5098965;28;20035;-84
2022/12/15 05:32:53;;;;;;;6.95;4.35;;;11.60;99.90;;;;;;5096822;28;20023;-83
2022/12/15 05:35:19;;;;;;;4.63;3.85;;;11.60;99.90;;;;;;5092458;28;20024;-84
2022/12/15 05:37:45;;;;;;;5.65;4.40;;;11.50;99.90;;;;;;5066488;28;20021;-83
2022/12/15 05:40:11;;;;;;;9.27;5.03;;;11.60;99.90;;;;;;5091949;28;20476;-82
2022/12/15 05:42:37;;;;;;;8.05;5.43;;;11.50;99.90;;;;;;5098238;28;20408;-82
2022/12/15 05:45:04;;;;;;;7.60;3.65;;;11.60;99.90;;;;;;5074438;28;20081;-85
2022/12/15 05:47:30;;;;;;;7.35;5.43;;;11.60;99.90;;;;;;5098039;28;20031;-84
2022/12/15 05:49:56;;;;;;;5.20;4.57;;;11.60;99.90;;;;;;5088207;28;20020;-83
2022/12/15 05:52:21;;;;;;;8.57;5.43;;;11.60;99.90;;;;;;5098166;28;20500;-83
2022/12/15 05:54:47;;;;;;;5.15;3.97;;;11.60;99.90;;;;;;5075040;28;20036;-83
2022/12/15 05:57:13;;;;;;;7.50;4.32;;;11.60;99.90;;;;;;5098098;28;20028;-81
2022/12/15 05:59:39;;;;;;;6.55;4.28;;;11.60;99.90;;;;;;5089517;28;20032;-82
2022/12/15 06:02:05;;;;;;;5.32;3.70;;;11.60;99.90;;;;;;5097814;28;20020;-83
2022/12/15 06:04:30;;;;;;;8.23;4.15;;;11.60;99.90;;;;;;5089254;28;20044;-81
2022/12/15 06:06:56;;;;;;;7.72;3.72;;;11.70;99.90;;;;;;5095454;28;20022;-82
2022/12/15 06:09:22;;;;;;;6.95;4.50;;;11.70;99.90;;;;;;5090850;28;20036;-80
2022/12/15 06:11:48;;;;;;;8.13;4.18;;;11.70;99.90;;;;;;5085698;28;20024;-84
2022/12/15 06:14:14;;;;;;;10.45;4.40;;;11.70;99.90;;;;;;5092779;28;20491;-83
2022/12/15 06:16:39;;;;;;;5.70;4.75;;;11.70;99.90;;;;;;5095686;28;20020;-86
2022/12/15 06:19:05;;;;;;;10.65;5.00;;;11.70;99.90;;;;;;5076864;28;20123;-83
2022/12/15 06:21:34;;;;;;;9.05;5.43;;;11.70;99.90;;;;;;5093502;28;20020;-83
2022/12/15 06:24:00;;;;;;;7.47;4.68;;;11.70;99.90;;;;;;5089900;28;20373;-80
2022/12/15 06:26:29;;;;;;;9.88;4.40;;;11.70;99.90;;;;;;5078004;28;20027;-83
2022/12/15 06:28:58;;;;;;;10.37;5.70;;;11.70;99.90;;;;;;5076465;28;20020;-84
2022/12/15 06:31:25;;;;;;;13.02;5.57;;;11.70;99.90;;;;;;5076682;28;20114;-84
2022/12/15 06:33:52;;;;;;;11.20;5.03;;;11.70;99.90;;;;;;5076582;28;20024;-84
2022/12/15 06:36:18;;;;;;;7.70;4.70;;;11.70;99.90;;;;;;5091750;28;20056;-82
2022/12/15 06:38:44;;;;;;;7.20;5.18;;;11.70;99.90;;;;;;5087768;28;20074;-83
2022/12/15 06:41:12;;;;;;;6.57;5.60;;;11.70;99.90;;;;;;5088898;28;20481;-83
2022/12/15 06:43:38;;;;;;;9.85;5.88;;;11.70;99.90;;;;;;5076549;28;20039;-81
2022/12/15 06:46:04;;;;;;;9.90;6.40;;;11.60;99.90;;;;;;5083358;28;20031;-83
2022/12/15 06:48:30;;;;;;;11.55;6.65;;;11.50;99.90;;;;;;5092394;28;20032;-84
2022/12/15 06:51:02;;;;;;;13.20;6.35;;;11.40;99.90;;;;;;5084643;28;20020;-85
2022/12/15 06:53:28;;;;;;;10.23;6.32;;;11.30;99.90;;;;;;5079971;28;20149;-86
2022/12/15 06:56:02;;;;;;;10.10;5.85;;;11.20;99.90;;;;;;5095519;28;20048;-86
2022/12/15 06:58:28;;;;;;;9.35;8.00;;;11.10;99.90;;;;;;5074096;28;20036;-87
2022/12/15 07:00:54;;;;;;;12.32;9.45;;;11.00;99.90;;;;;;5074723;28;20419;-87
2022/12/15 07:03:20;;;;;;;23.38;15.48;;;10.90;99.90;;;;;;5093684;28;20104;-85
2022/12/15 07:05:46;;;;;;;15.32;11.95;;;10.80;99.90;;;;;;5074593;28;20506;-84
2022/12/15 07:08:15;;;;;;;57.78;39.08;;;10.70;99.90;;;;;;5094712;28;20073;-82
2022/12/15 07:10:42;;;;;;;51.30;35.22;;;10.70;99.90;;;;;;5069078;28;20027;-83
2022/12/15 07:13:12;;;;;;;17.90;12.35;;;10.60;99.90;;;;;;5091542;28;20016;-82
2022/12/15 07:15:39;;;;;;;21.38;14.65;;;10.60;99.90;;;;;;5078352;28;20399;-83
2022/12/15 07:18:06;;;;;;;27.70;19.77;;;10.50;99.90;;;;;;5092867;28;20024;-82
2022/12/15 07:20:32;;;;;;;28.20;20.67;;;10.50;99.90;;;;;;5078164;28;20119;-82
2022/12/15 07:22:59;;;;;;;26.02;18.88;;;10.50;99.90;;;;;;5076936;28;20024;-82
2022/12/15 07:25:25;;;;;;;89.20;57.17;;;10.40;99.90;;;;;;5066142;28;20126;-81
2022/12/15 07:27:51;;;;;;;35.38;22.42;;;10.40;99.90;;;;;;5072797;28;20515;-81
2022/12/15 07:30:17;;;;;;;31.73;23.50;;;10.40;99.90;;;;;;5070702;28;20016;-82
2022/12/15 07:32:43;;;;;;;104.45;58.88;;;10.30;99.90;;;;;;5075873;28;20013;-84
2022/12/15 07:35:11;;;;;;;26.58;17.23;;;10.20;99.90;;;;;;5075346;28;20495;-80
2022/12/15 07:37:37;;;;;;;26.83;16.55;;;10.20;99.90;;;;;;5075270;28;20090;-81
2022/12/15 07:40:04;;;;;;;26.70;17.90;;;10.10;99.90;;;;;;5067731;28;20028;-82
2022/12/15 07:42:30;;;;;;;24.90;15.60;;;10.10;99.90;;;;;;5078554;28;20502;-82
2022/12/15 07:44:56;;;;;;;24.92;16.52;;;10.00;99.90;;;;;;5077549;28;20036;-83
2022/12/15 07:47:23;;;;;;;21.30;14.65;;;10.00;99.90;;;;;;5076537;28;20108;-82
2022/12/15 07:49:48;;;;;;;27.10;16.85;;;10.00;99.90;;;;;;5070771;28;20051;-81
2022/12/15 07:52:14;;;;;;;16.65;12.02;;;9.90;99.90;;;;;;5079082;28;20021;-81
2022/12/15 07:54:40;;;;;;;23.55;14.70;;;10.00;99.90;;;;;;5074339;28;20039;-81
2022/12/15 07:57:06;;;;;;;24.33;14.70;;;9.90;99.90;;;;;;5078381;28;20112;-81
2022/12/15 07:59:35;;;;;;;21.48;13.07;;;9.90;99.90;;;;;;5075443;28;20461;-80
2022/12/15 08:02:03;;;;;;;51.85;30.00;;;9.90;99.90;;;;;;5079596;28;20079;-81
2022/12/15 08:04:29;;;;;;;26.50;17.02;;;9.90;99.90;;;;;;5073343;28;20808;-80
2022/12/15 08:06:56;;;;;;;17.80;10.85;;;9.80;99.90;;;;;;5069770;28;20020;-81
2022/12/15 08:09:22;;;;;;;15.90;11.35;;;9.80;99.90;;;;;;5071714;28;20079;-80
2022/12/15 08:11:49;;;;;;;14.55;9.90;;;9.70;99.90;;;;;;5074545;28;20013;-78
2022/12/15 08:14:15;;;;;;;11.88;9.52;;;9.70;99.90;;;;;;5070694;28;20029;-79
2022/12/15 08:16:41;;;;;;;14.40;10.27;;;9.70;99.90;;;;;;5073839;28;20017;-80
2022/12/15 08:19:11;;;;;;;15.52;9.80;;;9.70;99.90;;;;;;5067876;28;20043;-80
2022/12/15 08:21:39;;;;;;;14.88;9.75;;;9.70;99.90;;;;;;5076524;28;20067;-80
2022/12/15 08:24:06;;;;;;;17.52;10.90;;;9.70;99.90;;;;;;5073200;28;20111;-80
2022/12/15 08:26:32;;;;;;;17.55;11.15;;;9.70;99.90;;;;;;5081335;28;20028;-81
2022/12/15 08:29:04;;;;;;;16.88;10.45;;;9.70;99.90;;;;;;5093711;28;20020;-80
2022/12/15 08:31:32;;;;;;;22.63;12.75;;;9.80;99.90;;;;;;5096338;28;20056;-79
2022/12/15 08:33:58;;;;;;;14.55;10.80;;;9.80;99.90;;;;;;5076471;28;20017;-80
2022/12/15 08:36:24;;;;;;;14.98;10.88;;;9.80;99.90;;;;;;5099055;28;20028;-80
2022/12/15 08:38:50;;;;;;;14.57;9.77;;;9.70;99.90;;;;;;5096993;28;20032;-80
2022/12/15 08:41:20;;;;;;;16.48;11.77;;;9.70;99.90;;;;;;5092865;28;20488;-79
2022/12/15 08:43:50;;;;;;;16.25;10.25;;;9.70;99.90;;;;;;5075164;28;20077;-79
2022/12/15 08:46:18;;;;;;;292.40;172.43;;;9.70;99.90;;;;;;5080210;28;20020;-80
2022/12/15 08:48:44;;;;;;;24.27;15.55;;;9.70;99.90;;;;;;5077035;28;20025;-80
2022/12/15 08:51:10;;;;;;;25.02;12.73;;;9.80;99.90;;;;;;5087811;28;20027;-80
2022/12/15 08:53:37;;;;;;;22.27;13.25;;;9.70;99.90;;;;;;5076367;28;20031;-80
2022/12/15 08:56:09;;;;;;;19.45;12.13;;;9.70;99.90;;;;;;5095561;28;20013;-79
2022/12/15 08:58:35;;;;;;;19.63;12.27;;;9.80;99.90;;;;;;5072803;28;20052;-81
2022/12/15 09:01:06;;;;;;;17.00;11.57;;;9.80;99.90;;;;;;5095297;28;20103;-80
2022/12/15 09:03:34;;;;;;;18.92;11.90;;;9.80;99.90;;;;;;5095375;28;20046;-80
2022/12/15 09:06:10;;;;;;;17.73;12.02;;;9.90;99.90;;;;;;5097483;28;20020;-80
2022/12/15 09:08:36;;;;;;;14.75;11.30;;;9.90;99.90;;;;;;5077294;28;20485;-80
2022/12/15 09:11:04;;;;;;;18.48;13.38;;;9.90;99.90;;;;;;5074046;28;20385;-80
2022/12/15 09:13:30;;;;;;;32.72;16.98;;;10.00;99.90;;;;;;5092506;28;20016;-81
2022/12/15 09:15:57;;;;;;;27.27;18.35;;;10.00;99.90;;;;;;5087807;28;20061;-81
2022/12/15 09:18:23;;;;;;;34.85;22.42;;;10.10;99.90;;;;;;5095978;28;20029;-81
2022/12/15 09:20:49;;;;;;;35.10;22.63;;;10.10;99.90;;;;;;5075481;28;20022;-81
2022/12/15 09:23:14;;;;;;;40.00;27.98;;;10.20;99.90;;;;;;5078151;28;20496;-81
2022/12/15 09:25:41;;;;;;;33.25;22.52;;;10.30;99.90;;;;;;5091131;28;20057;-81
2022/12/15 09:28:07;;;;;;;37.35;21.58;;;10.40;99.90;;;;;;5073481;28;20036;-82
2022/12/15 09:30:33;;;;;;;29.10;19.67;;;10.40;99.90;;;;;;5070245;28;20020;-82
2022/12/15 09:32:58;;;;;;;23.13;17.52;;;10.60;99.90;;;;;;5070016;28;20074;-82
2022/12/15 09:35:27;;;;;;;18.42;13.27;;;10.70;99.90;;;;;;5083275;28;20029;-81
2022/12/15 09:37:55;;;;;;;22.73;14.15;;;10.80;99.90;;;;;;5086874;28;20449;-82
2022/12/15 09:40:20;;;;;;;21.00;14.93;;;10.90;99.90;;;;;;5073461;28;20189;-81
2022/12/15 09:42:52;;;;;;;17.90;13.57;;;11.10;99.90;;;;;;5091819;28;20028;-81
2022/12/15 09:45:27;;;;;;;19.33;12.82;;;11.30;99.90;;;;;;5081289;28;20035;-82
2022/12/15 09:48:09;;;;;;;15.93;12.38;;;11.60;99.90;;;;;;5089642;28;20036;-81
2022/12/15 09:50:37;;;;;;;14.27;11.05;;;11.60;99.90;;;;;;5070586;28;20596;-82
2022/12/15 09:53:08;;;;;;;19.02;11.88;;;11.70;99.90;;;;;;5089056;28;20100;-81
2022/12/15 09:55:34;;;;;;;;;;;11.70;99.90;;;;;;5064686;28;20496;-81
2022/12/15 09:58:41;;;;;;;14.18;9.95;;;11.60;99.90;;;;;;5089825;28;19904;-81
2022/12/15 10:01:11;;;;;;;15.18;11.40;;;11.40;99.90;;;;;;5084089;28;20066;-82
2022/12/15 10:04:00;;;;;;;20.35;12.25;;;11.30;99.90;;;;;;5081950;28;20024;-82
2022/12/15 10:07:03;;;;;;;17.48;10.65;;;11.20;99.90;;;;;;5089964;28;20055;-82
2022/12/15 10:09:29;;;;;;;15.00;11.13;;;11.20;99.90;;;;;;5073582;28;20020;-82
2022/12/15 10:12:09;;;;;;;18.40;11.70;;;11.10;99.90;;;;;;5087860;28;20059;-82
2022/12/15 10:15:13;;;;;;;17.83;10.38;;;11.10;99.90;;;;;;5084198;28;20024;-83
2022/12/15 10:17:47;;;;;;;15.88;10.38;;;11.10;99.90;;;;;;5045752;28;20028;-83
2022/12/15 10:20:23;;;;;;;18.90;10.90;;;10.90;99.90;;;;;;5070609;28;20028;-83
2022/12/15 10:22:50;;;;;;;17.65;11.63;;;10.80;99.90;;;;;;5063031;28;20528;-83
2022/12/15 10:25:20;;;;;;;18.52;11.68;;;10.80;99.90;;;;;;5084644;28;20054;-83
2022/12/15 10:28:08;;;;;;;16.92;11.35;;;10.70;99.90;;;;;;5073175;28;20055;-84
2022/12/15 10:30:34;;;;;;;15.90;10.70;;;10.70;99.90;;;;;;5066286;28;20021;-83
2022/12/15 10:33:18;;;;;;;12.25;8.45;;;10.80;99.90;;;;;;5081290;28;20021;-82
2022/12/15 10:35:45;;;;;;;13.55;8.13;;;10.80;99.90;;;;;;5069899;28;20016;-82
2022/12/15 10:38:30;;;;;;;12.85;8.73;;;10.80;99.90;;;;;;5087379;28;20032;-83
2022/12/15 10:41:00;;;;;;;15.23;9.00;;;10.80;99.90;;;;;;5085554;28;20194;-82
2022/12/15 10:43:35;;;;;;;11.60;7.90;;;10.80;99.90;;;;;;5068462;28;20031;-84
2022/12/15 10:46:13;;;;;;;11.73;8.02;;;10.80;99.90;;;;;;5087986;28;20262;-83
2022/12/15 10:48:43;;;;;;;12.60;9.15;;;10.80;99.90;;;;;;5085177;28;20028;-82
2022/12/15 10:51:31;;;;;;;16.67;9.82;;;10.80;99.90;;;;;;5087569;28;20024;-82
2022/12/15 10:54:14;;;;;;;12.00;9.57;;;10.80;99.90;;;;;;5088970;28;20020;-82
2022/12/15 10:56:52;;;;;;;17.10;10.18;;;10.90;99.90;;;;;;5073992;28;20032;-82
2022/12/15 10:59:30;;;;;;;12.45;10.30;;;11.00;99.90;;;;;;5086499;28;20032;-83
2022/12/15 11:02:26;;;;;;;24.15;12.38;;;10.90;99.90;;;;;;5093363;28;20035;-83
2022/12/15 11:05:04;;;;;;;27.80;13.07;;;11.00;99.90;;;;;;5068639;28;20031;-83
2022/12/15 11:07:53;;;;;;;19.10;13.60;;;11.10;99.90;;;;;;5085675;28;20085;-82
2022/12/15 11:10:26;;;;;;;16.05;11.23;;;11.10;99.90;;;;;;5088945;28;20056;-83
2022/12/15 11:13:13;;;;;;;18.15;12.32;;;11.10;99.90;;;;;;5091628;28;20035;-83
2022/12/15 11:15:40;;;;;;;22.42;14.23;;;11.20;99.90;;;;;;5071885;28;20387;-83
2022/12/15 11:18:44;;;;;;;22.92;15.30;;;11.20;99.90;;;;;;5078274;28;20476;-83
2022/12/15 11:21:21;;;;;;;23.10;14.95;;;11.20;99.90;;;;;;5040176;28;20036;-85
2022/12/15 11:23:49;;;;;;;17.95;15.02;;;11.20;99.90;;;;;;5092872;28;20039;-84
2022/12/15 11:26:39;;;;;;;19.60;15.50;;;11.30;99.90;;;;;;5076468;28;20024;-83
2022/12/15 11:29:22;;;;;;;23.17;14.80;;;11.30;99.90;;;;;;5090644;28;20473;-84
2022/12/15 11:31:50;;;;;;;23.52;16.48;;;11.40;99.90;;;;;;5100021;28;20016;-83
2022/12/15 11:34:46;;;;;;;21.02;15.95;;;11.40;99.90;;;;;;5093522;28;20861;-82
2022/12/15 11:37:34;;;;;;;25.77;16.85;;;11.50;99.90;;;;;;5081421;28;20036;-83
2022/12/15 11:40:17;;;;;;;22.65;17.67;;;11.60;99.90;;;;;;5091091;28;20032;-83
2022/12/15 11:42:52;;;;;;;26.52;17.42;;;11.70;99.90;;;;;;5081350;28;20111;-84
2022/12/15 11:45:47;;;;;;;26.05;15.05;;;11.80;99.90;;;;;;5089868;28;20035;-84
2022/12/15 11:48:16;;;;;;;24.80;15.90;;;11.90;99.90;;;;;;5074345;28;20044;-84
2022/12/15 11:50:57;;;;;;;21.25;14.00;;;11.90;99.90;;;;;;5094914;28;20119;-84
2022/12/15 11:53:40;;;;;;;20.92;15.95;;;12.00;99.90;;;;;;5094064;28;20032;-84
2022/12/15 11:56:25;;;;;;;67.03;58.03;;;12.10;99.90;;;;;;5078845;28;20119;-84
2022/12/15 11:58:54;;;;;;;18.95;14.35;;;12.20;99.90;;;;;;5073948;28;20056;-84
2022/12/15 12:01:38;;;;;;;17.25;13.02;;;12.20;99.90;;;;;;5095910;28;20026;-84
2022/12/15 12:04:25;;;;;;;18.27;13.05;;;12.30;99.90;;;;;;5090619;28;20021;-83
2022/12/15 12:07:30;;;;;;;18.10;12.32;;;12.30;99.90;;;;;;5078236;28;20044;-84
2022/12/15 12:10:36;;;;;;;19.65;12.77;;;12.30;99.90;;;;;;5090579;28;20016;-83
2022/12/15 12:13:34;;;;;;;17.90;13.07;;;12.30;99.90;;;;;;5095818;28;20020;-84
2022/12/15 12:16:16;;;;;;;19.67;13.30;;;12.20;99.90;;;;;;5071892;28;20052;-84
2022/12/15 12:18:56;;;;;;;19.83;12.55;;;12.20;99.90;;;;;;5093009;28;20028;-84
2022/12/15 12:21:27;;;;;;;18.37;13.47;;;12.10;99.90;;;;;;5078622;28;20025;-84
2022/12/15 12:24:02;;;;;;;17.48;13.55;;;12.20;99.90;;;;;;5091670;28;20135;-84
2022/12/15 12:27:08;;;;;;;17.02;12.32;;;12.20;99.90;;;;;;5091460;28;20035;-83
2022/12/15 12:29:50;;;;;;;14.55;11.60;;;12.20;99.90;;;;;;5083790;28;20365;-83
2022/12/15 12:32:53;;;;;;;25.23;13.30;;;12.30;99.90;;;;;;5078003;28;20020;-83
2022/12/15 12:35:40;;;;;;;18.10;11.88;;;12.30;99.90;;;;;;5088599;28;20059;-83
2022/12/15 12:38:10;;;;;;;12.63;9.45;;;12.40;99.90;;;;;;5075361;28;20108;-82
2022/12/15 12:40:58;;;;;;;13.55;7.85;;;12.40;99.90;;;;;;5088757;28;20012;-83
2022/12/15 12:43:42;;;;;;;9.05;7.45;;;12.50;99.90;;;;;;5075621;28;20036;-82
2022/12/15 12:46:15;;;;;;;10.32;7.65;;;12.60;99.90;;;;;;5091980;28;20020;-83
2022/12/15 12:49:04;;;;;;;17.13;9.50;;;12.60;99.90;;;;;;5060514;28;20076;-83
2022/12/15 12:51:40;;;;;;;10.05;8.18;;;12.60;99.90;;;;;;5057269;28;20024;-82
2022/12/15 12:54:35;;;;;;;10.05;7.20;;;12.60;99.90;;;;;;5068247;28;20073;-81
2022/12/15 12:57:47;;;;;;;11.63;8.95;;;12.50;99.90;;;;;;5082090;28;20030;-82
2022/12/15 13:00:14;;;;;;;15.50;12.13;;;12.40;99.90;;;;;;5068363;28;20043;-83
2022/12/15 13:02:52;;;;;;;11.90;10.15;;;12.30;99.90;;;;;;5092584;28;20028;-84
2022/12/15 13:05:31;;;;;;;19.83;10.30;;;12.30;99.90;;;;;;5087879;28;20096;-85
2022/12/15 13:08:04;;;;;;;15.05;11.00;;;12.20;99.90;;;;;;5068526;28;20069;-82
2022/12/15 13:10:33;;;;;;;16.10;10.70;;;12.20;99.90;;;;;;5074536;28;20040;-83
2022/12/15 13:13:28;;;;;;;12.57;11.23;;;12.20;99.90;;;;;;5061110;28;20435;-82
2022/12/15 13:16:01;;;;;;;13.60;10.82;;;12.30;99.90;;;;;;5064512;28;20080;-83
2022/12/15 13:18:27;;;;;;;15.05;11.00;;;12.20;99.90;;;;;;5086348;28;20024;-81
2022/12/15 13:20:54;;;;;;;20.73;12.15;;;12.30;99.90;;;;;;5088616;28;20024;-82
2022/12/15 13:23:20;;;;;;;12.95;11.40;;;12.30;99.90;;;;;;5086073;28;20396;-81
2022/12/15 13:25:52;;;;;;;15.63;11.45;;;12.40;99.90;;;;;;5085393;28;20123;-82
2022/12/15 13:28:37;;;;;;;15.32;10.95;;;12.50;99.90;;;;;;5092890;28;20345;-82
2022/12/15 13:31:21;;;;;;;16.42;12.02;;;12.50;99.90;;;;;;5088887;28;20027;-82
2022/12/15 13:33:51;;;;;;;12.73;10.05;;;12.60;99.90;;;;;;5089751;28;20091;-81
2022/12/15 13:36:35;;;;;;;12.07;8.77;;;12.60;99.90;;;;;;5074650;28;20031;-81
2022/12/15 13:39:03;;;;;;;11.52;8.95;;;12.70;99.90;;;;;;5072554;28;20052;-81
2022/12/15 13:41:29;;;;;;;9.32;8.10;;;12.70;99.90;;;;;;5071438;28;20047;-81
2022/12/15 13:43:57;;;;;;;12.52;8.30;;;12.70;99.90;;;;;;5094465;28;20488;-79
2022/12/15 13:46:31;;;;;;;9.50;7.75;;;12.80;99.90;;;;;;5085035;28;20032;-82
2022/12/15 13:49:13;;;;;;;8.82;7.18;;;12.80;99.90;;;;;;5091631;28;20107;-77
2022/12/15 13:51:44;;;;;;;7.65;6.72;;;13.00;99.90;;;;;;5089118;28;20080;-82
2022/12/15 13:54:21;;;;;;;8.85;6.90;;;13.10;99.90;;;;;;5074917;28;20016;-81
2022/12/15 13:56:50;;;;;;;9.25;7.13;;;13.20;99.90;;;;;;5064216;28;20139;-83
2022/12/15 13:59:25;;;;;;;8.25;6.68;;;13.20;99.90;;;;;;5072983;28;20114;-82
2022/12/15 14:01:52;;;;;;;8.70;7.13;;;13.20;99.90;;;;;;5089217;28;20028;-80
2022/12/15 14:04:19;;;;;;;7.80;6.88;;;13.20;99.90;;;;;;5089570;28;20024;-82
2022/12/15 14:07:05;;;;;;;6.65;5.95;;;13.20;99.90;;;;;;5090862;28;20112;-82
2022/12/15 14:09:38;;;;;;;7.90;6.35;;;13.10;99.90;;;;;;5072805;28;20032;-81
2022/12/15 14:12:11;;;;;;;13.32;6.68;;;13.20;99.90;;;;;;5095509;28;20649;-81
2022/12/15 14:14:44;;;;;;;13.27;6.22;;;13.20;99.90;;;;;;5090015;28;20459;-79
2022/12/15 14:17:14;;;;;;;7.28;5.38;;;13.10;99.90;;;;;;5089777;28;20107;-80
2022/12/15 14:19:42;;;;;;;7.70;5.75;;;13.20;99.90;;;;;;5089422;28;20397;-82
2022/12/15 14:22:28;;;;;;;6.93;5.72;;;13.30;99.90;;;;;;5077971;28;20038;-81
2022/12/15 14:25:17;;;;;;;14.20;11.00;;;13.40;99.90;;;;;;5072442;28;20097;-80
2022/12/15 14:27:43;;;;;;;6.57;5.93;;;13.50;99.90;;;;;;5096029;28;20038;-82
2022/12/15 14:30:12;;;;;;;9.50;8.52;;;13.50;99.90;;;;;;5092268;28;20020;-82
2022/12/15 14:32:39;;;;;;;10.60;8.25;;;13.60;99.90;;;;;;5094132;28;20099;-83
2022/12/15 14:35:11;;;;;;;11.98;7.93;;;13.80;99.90;;;;;;5065262;28;20064;-83
2022/12/15 14:37:36;;;;;;;8.13;6.10;;;13.90;99.90;;;;;;5074188;28;20031;-82
2022/12/15 14:40:03;;;;;;;11.73;7.22;;;14.00;99.90;;;;;;5090648;28;20020;-82
2022/12/15 14:42:29;;;;;;;7.88;6.28;;;13.90;99.90;;;;;;5094427;28;20511;-82
2022/12/15 14:44:56;;;;;;;11.63;6.50;;;13.90;99.90;;;;;;5086043;28;20613;-82
2022/12/15 14:47:32;;;;;;;7.85;5.93;;;13.90;99.90;;;;;;5089059;28;20096;-81
2022/12/15 14:50:01;;;;;;;9.68;6.00;;;13.80;99.90;;;;;;5090676;28;20111;-83
2022/12/15 14:52:40;;;;;;;9.30;7.88;;;13.70;99.90;;;;;;5074160;28;20032;-82
2022/12/15 14:55:33;;;;;;;8.27;5.80;;;13.60;99.90;;;;;;5084554;28;20012;-83
2022/12/15 14:57:59;;;;;;;11.15;6.68;;;13.50;99.90;;;;;;5089775;28;20039;-83
2022/12/15 15:00:33;;;;;;;8.38;6.63;;;13.40;99.90;;;;;;5073963;28;20070;-82
2022/12/15 15:03:14;;;;;;;11.85;6.50;;;13.50;99.90;;;;;;5073710;28;20451;-83
2022/12/15 15:05:42;;;;;;;7.50;6.30;;;13.40;99.90;;;;;;5088759;28;20024;-83
2022/12/15 15:08:14;;;;;;;7.82;6.95;;;13.40;99.90;;;;;;5094082;28;20111;-83
2022/12/15 15:10:41;;;;;;;7.28;5.68;;;13.40;99.90;;;;;;5093362;28;20024;-83
2022/12/15 15:13:18;;;;;;;8.98;6.65;;;13.40;99.90;;;;;;5089829;28;20028;-83
2022/12/15 15:15:54;;;;;;;8.35;6.10;;;13.30;99.90;;;;;;5074906;28;20052;-83
2022/12/15 15:18:26;;;;;;;11.43;6.80;;;13.30;99.90;;;;;;5092350;28;20032;-83
2022/12/15 15:21:02;;;;;;;9.77;7.18;;;13.20;99.90;;;;;;5089414;28;20020;-83
2022/12/15 15:23:29;;;;;;;11.18;6.47;;;13.10;99.90;;;;;;5093525;28;20036;-82
2022/12/15 15:26:08;;;;;;;7.78;6.20;;;13.00;99.90;;;;;;5093967;28;20089;-83
2022/12/15 15:28:43;;;;;;;8.95;6.45;;;12.90;99.90;;;;;;5088101;28;20033;-82